Notice: Undefined index: language in /home/u908952976/domains/airgaviota-va.com/public_html/vam/index.php on line 25
AirGaviota-VA

... VIRTUAL FLIGHT...OUR PASSION



 FLIGHT DETAILS
Pilot: GVT462 Peter Voksan Aircraft: REDEYES - ANTONOV AN-2 (32V_64B) AN-2-GAVIOTAAIRVAAEROTAXI Distance: 58NM
Departure MUBR Arrival MUCC Duration 00:47
Validation Validated Type Regular Tail Number GV-AET
ZFW 4085 Block Fuel/Initial FOB 75/0 Flight Fuel 61
Passengers 9 Cargo 1760 Alternate MUCM
Departure Time Cruise Speed 100 Flight Level 1500
Flight Type VFR Aircraft Type AN2 Weight Unit Kg
Date 02-05-2020 Pilot Comments Network IVAO
Crashed No Validator Comments Flight Rating 70

 ROUTE
ROUTE DCT
REMARKS
 FLIGHT FAILURES
Crashed OK Beacon off & Engine Running Fail KIAS Above 250 below 10000 FT OK
Lights OFF below 10000 FT OK Lights ON above 10000 FT OK Stall OK
Overspeed OK Flight paused OK Refueling OK
Slew detected OK Taxi & Taxi lights off OK Take off & lights off OK
Landing & lights off OK Landed in not planned airport OK Taxi Speed OK
Wrong altimeter in Take off OK Wrong altimeter in Landing OK
 LANDING ANALYSIS
Landing wind 34º/13 kt Landing heading 326
Landing VS: -49.98 ft/min Landing IAS: 61.3 kt
Landing Force G 1 G Landing Bank 0.1
Landing Pitch -2.3 Landing Flaps 0
Navigation Lights ON Landing Lights ON
Beacon Lights OFF Strobe Lights OFF
 FLIGHT MAP
 ALTITUDE CHART
 FLIGHT FINANCIAL REPORT
Cargo:1760 .Price per Cargo Unit:12 21,120.00
Number of PAX:9 .Price per PAX:100 900.00
TOTAL 22,020.00
 MAIN EVENTS
DATE EVENTIASALTITUDE
2020-05-02 22:28:56 SIM ACARS version 1.4.1423
2020-05-02 22:28:56 BOARDING423
2020-05-02 22:31:26 STARTING ENGINE 1 423
2020-05-02 22:31:26 BEACON LIGHT OFF & ENGINE ON423
2020-05-02 22:33:50 FLAPS EXTENSION 1 % 123
2020-05-02 22:33:50 FLAPS EXTENSION 5 % 123
2020-05-02 22:33:50 FLAPS EXTENSION 6 % 123
2020-05-02 22:33:51 FLAPS EXTENSION 10 % 123
2020-05-02 22:33:51 FLAPS EXTENSION 11 % 123
2020-05-02 22:33:51 FLAPS EXTENSION 15 % 123
2020-05-02 22:33:51 FLAPS EXTENSION 16 % 123
2020-05-02 22:33:51 FLAPS EXTENSION 20 % 223
2020-05-02 22:33:52 FLAPS EXTENSION 21 % 223
2020-05-02 22:33:52 FLAPS EXTENSION 23 % 223
2020-05-02 22:33:52 FLAPS EXTENSION 26 % 223
2020-05-02 22:33:52 FLAPS EXTENSION 30 % 223
2020-05-02 22:33:52 FLAPS EXTENSION 31 % 223
2020-05-02 22:33:53 FLAPS EXTENSION 35 % 223
2020-05-02 22:33:53 FLAPS EXTENSION 36 % 223
2020-05-02 22:33:53 FLAPS EXTENSION 38 % 223
2020-05-02 22:38:46 TAXI TO THE RWY 1323
2020-05-02 22:39:32 ROLLING FOR TAKE OFF3823
2020-05-02 22:39:39 TAKE OFF4726
2020-05-02 22:40:50 FLAPS EXTENSION 37 % 56506
2020-05-02 22:40:50 FLAPS EXTENSION 33 % 56508
2020-05-02 22:40:50 FLAPS EXTENSION 31 % 56509
2020-05-02 22:40:51 FLAPS EXTENSION 30 % 56510
2020-05-02 22:40:51 FLAPS EXTENSION 28 % 56511
2020-05-02 22:40:51 FLAPS EXTENSION 26 % 56512
2020-05-02 22:40:51 FLAPS EXTENSION 24 % 56513
2020-05-02 22:40:51 FLAPS EXTENSION 23 % 57514
2020-05-02 22:40:51 FLAPS EXTENSION 21 % 57514
2020-05-02 22:40:51 FLAPS EXTENSION 19 % 57516
2020-05-02 22:40:52 FLAPS EXTENSION 17 % 57516
2020-05-02 22:40:52 FLAPS EXTENSION 15 % 57517
2020-05-02 22:40:52 FLAPS EXTENSION 12 % 57518
2020-05-02 22:40:52 FLAPS EXTENSION 8 % 58520
2020-05-02 22:40:52 FLAPS EXTENSION 5 % 58520
2020-05-02 22:40:54 FLAPS EXTENSION 4 % 60520
2020-05-02 22:40:55 FLAPS EXTENSION 1 % 61520
2020-05-02 22:40:55 FLAPS EXTENSION 0 % 61520
2020-05-02 22:41:01 FLAPS EXTENSION 1 % 67543
2020-05-02 22:41:01 FLAPS EXTENSION 3 % 67544
2020-05-02 22:41:01 FLAPS EXTENSION 4 % 67544
2020-05-02 22:41:01 FLAPS EXTENSION 5 % 68545
2020-05-02 22:41:02 FLAPS EXTENSION 4 % 68545
2020-05-02 22:41:02 FLAPS EXTENSION 2 % 68546
2020-05-02 22:41:02 FLAPS EXTENSION 0 % 68547
2020-05-02 22:41:02 FLAPS EXTENSION 0 % 68547
2020-05-02 22:41:09 CRUISE71575
2020-05-02 22:43:09 CLIMBING64740
2020-05-02 22:43:39 CRUISE62793
2020-05-02 22:44:49 CLIMBING621002
2020-05-02 22:46:39 CRUISE641522
2020-05-02 22:47:49 CLIMBING671721
2020-05-02 22:48:49 CRUISE651878
2020-05-02 22:52:39 CLIMBING792247
2020-05-02 22:53:39 CRUISE862177
2020-05-02 22:54:29 DESCEND912055
2020-05-02 22:54:59 CRUISE952029
2020-05-02 22:56:09 DESCEND981862
2020-05-02 22:56:59 CRUISE961804
2020-05-02 22:58:29 DESCEND941643
2020-05-02 22:58:59 CRUISE961589
2020-05-02 23:06:29 CLIMBING821524
2020-05-02 23:07:29 CRUISE871561
2020-05-02 23:10:49 DESCEND931512
2020-05-02 23:11:49 CRUISE981455
2020-05-02 23:16:19 DESCEND921454
2020-05-02 23:16:49 CRUISE931402
2020-05-02 23:19:15 FLAPS EXTENSION 1 % 631431
2020-05-02 23:19:15 FLAPS EXTENSION 3 % 631430
2020-05-02 23:19:16 FLAPS EXTENSION 8 % 651430
2020-05-02 23:19:16 FLAPS EXTENSION 10 % 661429
2020-05-02 23:19:16 FLAPS EXTENSION 13 % 671429
2020-05-02 23:19:16 FLAPS EXTENSION 15 % 671429
2020-05-02 23:19:17 FLAPS EXTENSION 18 % 671429
2020-05-02 23:19:17 FLAPS EXTENSION 20 % 671429
2020-05-02 23:19:17 FLAPS EXTENSION 23 % 671429
2020-05-02 23:19:17 FLAPS EXTENSION 25 % 671430
2020-05-02 23:19:59 DESCEND571262
2020-05-02 23:20:04 FLAPS EXTENSION 26 % 611233
2020-05-02 23:20:05 FLAPS EXTENSION 28 % 611231
2020-05-02 23:20:05 FLAPS EXTENSION 32 % 611230
2020-05-02 23:20:05 FLAPS EXTENSION 34 % 611229
2020-05-02 23:20:05 FLAPS EXTENSION 36 % 611228
2020-05-02 23:20:05 FLAPS EXTENSION 39 % 611227
2020-05-02 23:20:06 FLAPS EXTENSION 41 % 621226
2020-05-02 23:20:06 FLAPS EXTENSION 45 % 621225
2020-05-02 23:20:06 FLAPS EXTENSION 47 % 621224
2020-05-02 23:20:06 FLAPS EXTENSION 49 % 621223
2020-05-02 23:20:07 FLAPS EXTENSION 52 % 621223
2020-05-02 23:20:07 FLAPS EXTENSION 53 % 621222
2020-05-02 23:20:07 FLAPS EXTENSION 54 % 621221
2020-05-02 23:20:07 FLAPS EXTENSION 58 % 621221
2020-05-02 23:20:08 FLAPS EXTENSION 60 % 621221
2020-05-02 23:20:08 FLAPS EXTENSION 63 % 621221
2020-05-02 23:20:08 FLAPS EXTENSION 65 % 621221
2020-05-02 23:20:08 FLAPS EXTENSION 69 % 621221
2020-05-02 23:20:08 FLAPS EXTENSION 71 % 621221
2020-05-02 23:20:09 FLAPS EXTENSION 74 % 621221
2020-05-02 23:20:09 FLAPS EXTENSION 76 % 621221
2020-05-02 23:20:09 FLAPS EXTENSION 80 % 621222
2020-05-02 23:20:09 FLAPS EXTENSION 82 % 621222
2020-05-02 23:20:09 FLAPS EXTENSION 83 % 621223
2020-05-02 23:20:10 FLAPS EXTENSION 87 % 621223
2020-05-02 23:20:10 FLAPS EXTENSION 89 % 621224
2020-05-02 23:20:10 FLAPS EXTENSION 93 % 611225
2020-05-02 23:20:10 FLAPS EXTENSION 94 % 611226
2020-05-02 23:20:11 FLAPS EXTENSION 98 % 601227
2020-05-02 23:20:11 FLAPS EXTENSION 99 % 591229
2020-05-02 23:20:14 FLAPS EXTENSION 100 % 571239
2020-05-02 23:20:21 FLAPS EXTENSION 98 % 531225
2020-05-02 23:20:21 FLAPS EXTENSION 96 % 531224
2020-05-02 23:20:21 FLAPS EXTENSION 99 % 531223
2020-05-02 23:20:21 FLAPS EXTENSION 100 % 531221
2020-05-02 23:20:29 CRUISE541200
2020-05-02 23:23:29 DESCEND591003
2020-05-02 23:25:09 CRUISE52352
2020-05-02 23:26:09 DESCEND55195
2020-05-02 23:26:49 CRUISE5974
2020-05-02 23:27:54 LANDING6125
2020-05-02 23:28:24 TAXI TO THE GATE2023
2020-05-02 23:28:44 FLAPS EXTENSION 97 % 623
2020-05-02 23:28:45 FLAPS EXTENSION 95 % 623
2020-05-02 23:28:45 FLAPS EXTENSION 92 % 623
2020-05-02 23:28:45 FLAPS EXTENSION 88 % 623
2020-05-02 23:28:45 FLAPS EXTENSION 86 % 623
2020-05-02 23:28:46 FLAPS EXTENSION 83 % 623
2020-05-02 23:28:46 FLAPS EXTENSION 81 % 623
2020-05-02 23:28:46 FLAPS EXTENSION 79 % 623
2020-05-02 23:28:46 FLAPS EXTENSION 77 % 623
2020-05-02 23:28:46 FLAPS EXTENSION 75 % 623
2020-05-02 23:28:46 FLAPS EXTENSION 72 % 623
2020-05-02 23:28:47 FLAPS EXTENSION 70 % 623
2020-05-02 23:28:47 FLAPS EXTENSION 67 % 623
2020-05-02 23:28:47 FLAPS EXTENSION 65 % 623
2020-05-02 23:28:47 FLAPS EXTENSION 62 % 623
2020-05-02 23:28:48 FLAPS EXTENSION 60 % 623
2020-05-02 23:28:48 FLAPS EXTENSION 57 % 623
2020-05-02 23:28:48 FLAPS EXTENSION 55 % 723
2020-05-02 23:28:48 FLAPS EXTENSION 52 % 723
2020-05-02 23:28:48 FLAPS EXTENSION 50 % 723
2020-05-02 23:28:49 FLAPS EXTENSION 45 % 723
2020-05-02 23:28:49 FLAPS EXTENSION 42 % 723
2020-05-02 23:28:49 FLAPS EXTENSION 40 % 723
2020-05-02 23:28:50 FLAPS EXTENSION 37 % 723
2020-05-02 23:28:50 FLAPS EXTENSION 35 % 623
2020-05-02 23:28:50 FLAPS EXTENSION 32 % 623
2020-05-02 23:28:50 FLAPS EXTENSION 27 % 623
2020-05-02 23:28:51 FLAPS EXTENSION 25 % 623
2020-05-02 23:28:51 FLAPS EXTENSION 22 % 623
2020-05-02 23:28:51 FLAPS EXTENSION 20 % 623
2020-05-02 23:28:51 FLAPS EXTENSION 17 % 623
2020-05-02 23:28:51 FLAPS EXTENSION 15 % 623
2020-05-02 23:28:52 FLAPS EXTENSION 12 % 623
2020-05-02 23:28:52 FLAPS EXTENSION 10 % 723
2020-05-02 23:28:52 FLAPS EXTENSION 7 % 723
2020-05-02 23:28:52 FLAPS EXTENSION 5 % 723
2020-05-02 23:28:53 FLAPS EXTENSION 2 % 723
2020-05-02 23:28:53 FLAPS EXTENSION 0 % 723
2020-05-02 23:33:51 STOPPING ENGINE 1 023
 ACARS DATA
DATE IASGSALTITUDEFUEL CONSUMED OATFLIGHT STATUS
2020-05-02 22:29:56402207BOARDING
2020-05-02 22:30:561022010BOARDING
2020-05-02 22:31:564022113BOARDING
2020-05-02 22:32:564022216BOARDING
2020-05-02 22:33:563022219BOARDING
2020-05-02 22:34:562022322BOARDING
2020-05-02 22:35:563022425BOARDING
2020-05-02 22:36:562022528BOARDING
2020-05-02 22:37:563022629BOARDING
2020-05-02 22:38:562222729TAXI TO THE RWY
2020-05-02 22:39:564458136829CLIMBING
2020-05-02 22:40:5662525211128CLIMBING
2020-05-02 22:41:5669596551228CRUISE
2020-05-02 22:42:5669617111328CRUISE
2020-05-02 22:43:5661568171528CRUISE
2020-05-02 22:44:56625310371627CLIMBING
2020-05-02 22:45:56686112911726CLIMBING
2020-05-02 22:46:56645715921926CRUISE
2020-05-02 22:47:56676017412025CLIMBING
2020-05-02 22:48:56676118802225CRUISE
2020-05-02 22:49:56696319982325CRUISE
2020-05-02 22:50:56726521082424CRUISE
2020-05-02 22:51:56787321952624CRUISE
2020-05-02 22:52:56838822102724CLIMBING
2020-05-02 22:53:56919421422824CRUISE
2020-05-02 22:54:569210020312925DESCEND
2020-05-02 22:55:56919519413125CRUISE
2020-05-02 22:56:56958918023225DESCEND
2020-05-02 22:57:56938717073325CRUISE
2020-05-02 22:58:56958915973426DESCEND
2020-05-02 22:59:56928715303526CRUISE
2020-05-02 23:00:56918515053726CRUISE
2020-05-02 23:01:56928514833826CRUISE
2020-05-02 23:02:56908314863926CRUISE
2020-05-02 23:03:56898114734126CRUISE
2020-05-02 23:04:56878014994226CRUISE
2020-05-02 23:05:56898214784326CRUISE
2020-05-02 23:06:56888214754426CLIMBING
2020-05-02 23:07:56837916444626CRUISE
2020-05-02 23:08:56888316664726CRUISE
2020-05-02 23:09:56948815924826CRUISE
2020-05-02 23:10:56949114864926DESCEND
2020-05-02 23:11:56989214335126CRUISE
2020-05-02 23:12:56969113425226CRUISE
2020-05-02 23:13:56938614225326CRUISE
2020-05-02 23:14:56908415105526CRUISE
2020-05-02 23:15:56938814765626CRUISE
2020-05-02 23:16:56908414235726CRUISE
2020-05-02 23:17:56969213325826CRUISE
2020-05-02 23:18:56736714715926CRUISE
2020-05-02 23:19:56584912676026CRUISE
2020-05-02 23:20:56574711546227CRUISE
2020-05-02 23:21:56584811326327CRUISE
2020-05-02 23:22:56594910646427CRUISE
2020-05-02 23:23:5658508646527DESCEND
2020-05-02 23:24:5653423866629DESCEND
2020-05-02 23:25:5654432656729CRUISE
2020-05-02 23:26:566049546929CRUISE
2020-05-02 23:27:566251247029LANDED
2020-05-02 23:28:5660227129TAXI TO THE GATE
2020-05-02 23:29:5629237229TAXI TO THE GATE
2020-05-02 23:30:5628227229TAXI TO THE GATE
2020-05-02 23:31:5638227329TAXI TO THE GATE
2020-05-02 23:32:5678227429TAXI TO THE GATE
2020-05-02 23:33:5620227529TAXI TO THE GATE